Time;durP1;ratioP1;P1;durP2;ratioP2;P2;SDS_P1;SDS_P2;PMS_P1;PMS_P2;Temp;Humidity;BMP_temperature;BMP_pressure;BME280_temperature;BME280_humidity;BME280_pressure;Samples;Min_cycle;Max_cycle;Signal;HPM_P1;HPM_P2
2021/12/29 00:00:25;;;;;;;45.05;24.27;;;;;;;2.88;100.00;99210.13;7400030;19;20369;-66
2021/12/29 00:02:55;;;;;;;45.50;24.90;;;;;;;2.88;100.00;99211.00;7400363;19;20014;-66
2021/12/29 00:05:23;;;;;;;45.60;24.35;;;;;;;2.84;100.00;99208.47;7398711;19;20027;-66
2021/12/29 00:07:51;;;;;;;40.67;24.63;;;;;;;2.88;100.00;99210.13;7399752;19;20020;-66
2021/12/29 00:10:20;;;;;;;43.10;24.65;;;;;;;2.87;100.00;99218.75;7399696;19;20025;-72
2021/12/29 00:12:52;;;;;;;44.17;23.90;;;;;;;2.87;100.00;99219.63;7399303;19;20378;-66
2021/12/29 00:15:27;;;;;;;43.13;23.45;;;;;;;2.88;100.00;99220.47;7399864;19;20018;-67
2021/12/29 00:17:57;;;;;;;39.00;23.42;;;;;;;2.86;100.00;99223.09;7397985;19;20015;-66
2021/12/29 00:20:36;;;;;;;41.95;22.92;;;;;;;2.85;100.00;99226.56;7397329;19;20023;-65
2021/12/29 00:23:10;;;;;;;41.90;22.52;;;;;;;2.85;100.00;99228.31;7399857;19;20011;-65
2021/12/29 00:25:38;;;;;;;45.13;23.77;;;;;;;2.83;100.00;99230.94;7397921;19;20022;-65
2021/12/29 00:28:07;;;;;;;44.10;23.65;;;;;;;2.83;100.00;99233.53;7399241;19;20014;-65
2021/12/29 00:30:37;;;;;;;45.17;24.20;;;;;;;2.83;100.00;99235.22;7398877;19;20483;-65
2021/12/29 00:33:06;;;;;;;49.05;24.40;;;;;;;2.82;100.00;99243.88;7399405;19;20015;-65
2021/12/29 00:35:35;;;;;;;42.10;22.98;;;;;;;2.82;100.00;99246.47;7398189;19;20027;-65
2021/12/29 00:38:05;;;;;;;44.28;23.02;;;;;;;2.82;100.00;99252.53;7397309;19;20021;-65
2021/12/29 00:40:33;;;;;;;42.40;23.25;;;;;;;2.81;100.00;99261.16;7399327;19;20018;-65
2021/12/29 00:43:01;;;;;;;44.75;23.45;;;;;;;2.82;100.00;99255.13;7398721;19;20014;-65
2021/12/29 00:45:32;;;;;;;41.00;23.80;;;;;;;2.84;100.00;99273.22;7397503;19;20018;-65
2021/12/29 00:48:04;;;;;;;42.67;23.67;;;;;;;2.81;100.00;99270.69;7398266;19;20483;-65
2021/12/29 00:50:33;;;;;;;41.88;23.30;;;;;;;2.83;100.00;99271.50;7398882;19;20015;-65
2021/12/29 00:53:02;;;;;;;46.55;24.13;;;;;;;2.81;100.00;99263.75;7398205;19;20014;-65
2021/12/29 00:55:30;;;;;;;38.10;22.73;;;;;;;2.85;100.00;99286.13;7396860;19;20490;-65
2021/12/29 00:57:59;;;;;;;41.85;21.77;;;;;;;2.87;100.00;99283.53;7396838;19;20019;-65
2021/12/29 01:00:28;;;;;;;46.85;23.60;;;;;;;2.88;100.00;99287.84;7397742;19;20479;-65
2021/12/29 01:02:56;;;;;;;42.55;22.00;;;;;;;2.90;100.00;99288.69;7398063;19;20028;-65
2021/12/29 01:05:27;;;;;;;39.50;22.63;;;;;;;2.91;100.00;99288.66;7397029;19;20031;-65
2021/12/29 01:07:55;;;;;;;42.90;23.48;;;;;;;2.95;100.00;99283.44;7398374;19;20028;-65
2021/12/29 01:10:24;;;;;;;42.92;22.50;;;;;;;2.96;100.00;99288.59;7397834;19;20010;-65
2021/12/29 01:12:57;;;;;;;42.47;24.42;;;;;;;2.97;100.00;99284.25;7397796;19;20182;-65
2021/12/29 01:15:33;;;;;;;41.67;22.73;;;;;;;2.97;100.00;99282.53;7397031;19;20026;-65
2021/12/29 01:18:04;;;;;;;45.92;22.02;;;;;;;2.95;100.00;99275.66;7396072;19;20478;-65
2021/12/29 01:20:36;;;;;;;44.83;22.85;;;;;;;2.99;100.00;99295.47;7396582;19;20014;-65
2021/12/29 01:23:04;;;;;;;38.47;22.50;;;;;;;3.00;100.00;99300.63;7397877;19;20031;-65
2021/12/29 01:25:32;;;;;;;41.00;22.40;;;;;;;3.02;100.00;99303.19;7396380;19;20022;-65
2021/12/29 01:28:00;;;;;;;36.92;21.92;;;;;;;3.02;100.00;99306.66;7397215;19;20019;-65
2021/12/29 01:30:29;;;;;;;38.20;21.70;;;;;;;3.02;100.00;99314.44;7397172;19;20014;-65
2021/12/29 01:33:00;;;;;;;39.38;21.10;;;;;;;3.03;100.00;99317.84;7397183;19;20011;-65
2021/12/29 01:35:28;;;;;;;40.97;23.52;;;;;;;3.02;100.00;99314.44;7396463;19;20040;-65
2021/12/29 01:37:58;;;;;;;38.40;20.20;;;;;;;3.01;100.00;99315.28;7396070;19;20035;-65
2021/12/29 01:40:27;;;;;;;35.60;19.85;;;;;;;3.03;100.00;99320.44;7397329;19;20015;-65
2021/12/29 01:42:56;;;;;;;42.78;21.17;;;;;;;3.03;100.00;99330.81;7396810;19;20010;-65
2021/12/29 01:45:24;;;;;;;37.13;20.30;;;;;;;3.04;100.00;99324.75;7395841;19;20023;-65
2021/12/29 01:47:52;;;;;;;34.40;19.90;;;;;;;3.04;100.00;99325.59;7396647;19;20018;-65
2021/12/29 01:50:21;;;;;;;28.67;19.23;;;;;;;3.05;100.00;99322.13;7396491;19;20018;-65
2021/12/29 01:52:54;;;;;;;35.92;20.00;;;;;;;3.04;100.00;99329.94;7396502;19;20023;-65
2021/12/29 01:55:27;;;;;;;33.70;19.40;;;;;;;3.00;100.00;99323.94;7395859;19;20022;-65
2021/12/29 01:57:56;;;;;;;35.47;19.08;;;;;;;3.07;100.00;99335.06;7395900;19;20018;-65
2021/12/29 02:00:27;;;;;;;35.45;19.83;;;;;;;3.07;100.00;99333.34;7396283;19;20018;-65
2021/12/29 02:02:56;;;;;;;40.00;18.80;;;;;;;3.08;100.00;99334.19;7395236;19;20024;-65
2021/12/29 02:05:24;;;;;;;34.42;17.80;;;;;;;3.09;100.00;99339.34;7395229;19;20019;-65
2021/12/29 02:07:53;;;;;;;35.08;18.48;;;;;;;3.09;100.00;99341.94;7395947;19;20025;-65
2021/12/29 02:10:24;;;;;;;35.85;19.27;;;;;;;3.12;100.00;99346.22;7395987;19;20007;-65
2021/12/29 02:12:55;;;;;;;35.78;19.65;;;;;;;3.12;100.00;99337.59;7397985;19;20160;-64
2021/12/29 02:15:23;;;;;;;30.80;16.58;;;;;;;3.12;100.00;99341.03;7395272;19;20018;-65
2021/12/29 02:17:52;;;;;;;32.42;18.20;;;;;;;3.08;100.00;99341.97;7394933;19;20019;-64
2021/12/29 02:20:23;;;;;;;30.58;17.23;;;;;;;3.08;100.00;99340.25;7394773;19;20014;-65
2021/12/29 02:23:01;;;;;;;31.25;17.67;;;;;;;3.06;100.00;99349.78;7395490;19;20023;-64
2021/12/29 02:25:46;;;;;;;29.15;17.13;;;;;;;3.03;100.00;99351.53;7394906;19;20083;-65
2021/12/29 02:28:15;;;;;;;33.45;16.60;;;;;;;2.99;100.00;99352.47;7395876;19;20021;-65
2021/12/29 02:30:44;;;;;;;27.75;15.95;;;;;;;2.96;100.00;99361.13;7394948;19;20486;-65
2021/12/29 02:33:13;;;;;;;32.45;16.38;;;;;;;2.91;100.00;99368.13;7395332;19;20027;-64
2021/12/29 02:35:45;;;;;;;29.80;16.75;;;;;;;2.87;100.00;99380.25;7394135;19;20014;-65
2021/12/29 02:38:22;;;;;;;25.60;16.40;;;;;;;2.84;100.00;99379.41;7394673;19;20036;-65
2021/12/29 02:40:56;;;;;;;28.83;15.95;;;;;;;2.79;100.00;99382.06;7395541;19;20015;-65
2021/12/29 02:43:25;;;;;;;27.73;16.58;;;;;;;2.76;100.00;99385.53;7393463;19;20011;-65
2021/12/29 02:45:58;;;;;;;26.15;16.50;;;;;;;2.67;100.00;99380.47;7393288;19;20550;-65
2021/12/29 02:48:33;;;;;;;26.50;17.00;;;;;;;2.68;100.00;99384.78;7394623;19;20483;-65
2021/12/29 02:51:08;;;;;;;26.08;17.52;;;;;;;2.64;100.00;99393.47;7395221;19;20078;-66
2021/12/29 02:53:37;;;;;;;32.55;17.40;;;;;;;2.61;100.00;99391.75;7395250;19;20083;-66
2021/12/29 02:56:06;;;;;;;29.38;16.85;;;;;;;2.55;100.00;99385.78;7392862;19;20383;-65
2021/12/29 02:58:35;;;;;;;31.60;17.02;;;;;;;2.57;100.00;99399.59;7393446;19;20026;-64
2021/12/29 03:01:07;;;;;;;33.80;18.35;;;;;;;2.54;100.00;99400.47;7394557;19;20019;-66
2021/12/29 03:03:37;;;;;;;32.30;17.50;;;;;;;2.53;100.00;99416.03;7394973;19;20015;-63
2021/12/29 03:06:09;;;;;;;36.70;19.63;;;;;;;2.51;100.00;99410.84;7392847;19;20035;-65
2021/12/29 03:08:38;;;;;;;34.35;19.75;;;;;;;2.47;100.00;99418.69;7395732;19;20011;-65
2021/12/29 03:11:07;;;;;;;33.72;18.38;;;;;;;2.51;100.00;99434.16;7394382;19;20007;-63
2021/12/29 03:13:38;;;;;;;35.40;18.45;;;;;;;2.52;100.00;99442.78;7394230;19;20014;-64
2021/12/29 03:16:07;;;;;;;37.17;18.40;;;;;;;2.51;100.00;99433.31;7396803;19;20041;-64
2021/12/29 03:18:36;;;;;;;38.08;19.17;;;;;;;2.51;100.00;99438.47;7399463;19;20491;-64
2021/12/29 03:21:04;;;;;;;36.92;20.63;;;;;;;2.51;100.00;99436.75;7399770;19;20010;-64
2021/12/29 03:23:35;;;;;;;36.05;19.45;;;;;;;2.52;100.00;99442.78;7401374;19;20018;-62
2021/12/29 03:26:06;;;;;;;34.15;18.80;;;;;;;2.52;100.00;99442.78;7399443;19;20035;-64
2021/12/29 03:28:35;;;;;;;39.97;20.45;;;;;;;2.53;100.00;99436.75;7401684;19;20014;-64
2021/12/29 03:31:04;;;;;;;35.03;20.00;;;;;;;2.53;100.00;99444.53;7401132;19;20040;-65
2021/12/29 03:33:33;;;;;;;32.60;19.48;;;;;;;2.53;100.00;99447.94;7400471;19;20478;-64
2021/12/29 03:36:03;;;;;;;32.97;19.38;;;;;;;2.48;100.00;99447.13;7399066;19;20094;-64
2021/12/29 03:38:38;;;;;;;38.20;18.98;;;;;;;2.50;100.00;99455.72;7399603;19;20011;-64
2021/12/29 03:41:06;;;;;;;;;;;;;;;2.48;100.00;99454.91;7402192;19;20031;-64
2021/12/29 03:43:36;;;;;;;28.35;17.60;;;;;;;2.48;100.00;99456.63;7400830;19;19918;-64
2021/12/29 03:46:07;;;;;;;33.13;18.00;;;;;;;2.46;100.00;99456.63;7398693;19;20035;-64
2021/12/29 03:48:36;;;;;;;27.67;17.75;;;;;;;2.46;100.00;99453.22;7401090;19;20014;-64
2021/12/29 03:51:07;;;;;;;37.55;19.48;;;;;;;2.44;100.00;99458.41;7400500;19;20022;-64
2021/12/29 03:53:39;;;;;;;35.58;18.75;;;;;;;2.42;100.00;99473.94;7400080;19;20374;-64
2021/12/29 03:56:08;;;;;;;37.00;18.15;;;;;;;2.41;100.00;99473.94;7398404;19;20035;-62
2021/12/29 03:58:37;;;;;;;38.75;18.80;;;;;;;2.36;100.00;99471.38;7398948;19;20014;-64
2021/12/29 04:01:07;;;;;;;32.47;17.48;;;;;;;2.38;100.00;99481.75;7400177;19;20015;-64
2021/12/29 04:03:35;;;;;;;37.45;19.10;;;;;;;2.37;100.00;99493.81;7400481;19;20027;-65
2021/12/29 04:06:04;;;;;;;42.65;20.90;;;;;;;2.34;100.00;99487.81;7398798;19;20031;-64
2021/12/29 04:08:33;;;;;;;54.25;27.65;;;;;;;2.34;100.00;99490.41;7400695;19;20014;-65
2021/12/29 04:11:03;;;;;;;35.25;20.05;;;;;;;2.33;100.00;99494.72;7400248;19;20022;-64
2021/12/29 04:13:32;;;;;;;36.10;20.45;;;;;;;2.33;100.00;99497.31;7400113;19;20041;-64
2021/12/29 04:16:01;;;;;;;36.85;18.63;;;;;;;2.33;100.00;99502.50;7397539;19;20373;-64
2021/12/29 04:18:30;;;;;;;38.88;20.55;;;;;;;2.35;100.00;99505.06;7398649;19;20090;-64
2021/12/29 04:21:04;;;;;;;43.03;20.77;;;;;;;2.37;100.00;99517.13;7397719;19;20471;-64
2021/12/29 04:23:34;;;;;;;37.53;19.83;;;;;;;2.39;100.00;99511.91;7399878;19;20010;-64
2021/12/29 04:26:08;;;;;;;37.83;19.73;;;;;;;2.39;100.00;99501.56;7396593;19;20023;-64
2021/12/29 04:28:36;;;;;;;38.97;20.10;;;;;;;2.39;100.00;99505.03;7399020;19;20542;-64
2021/12/29 04:31:08;;;;;;;39.40;22.05;;;;;;;2.39;100.00;99512.78;7399182;19;20041;-64
2021/12/29 04:33:38;;;;;;;44.55;19.95;;;;;;;2.42;100.00;99520.53;7399417;19;20019;-64
2021/12/29 04:36:07;;;;;;;40.03;20.23;;;;;;;2.43;100.00;99521.41;7397216;19;20018;-64
2021/12/29 04:38:36;;;;;;;43.45;19.73;;;;;;;2.43;100.00;99527.44;7397915;19;20022;-64
2021/12/29 04:41:07;;;;;;;45.83;20.85;;;;;;;2.41;100.00;99546.44;7398261;19;20471;-64
2021/12/29 04:43:36;;;;;;;54.00;24.10;;;;;;;2.46;100.00;99543.81;7398428;19;20014;-64
2021/12/29 04:46:04;;;;;;;50.22;25.02;;;;;;;2.47;100.00;99545.53;7396999;19;20054;-64
2021/12/29 04:48:38;;;;;;;51.45;22.17;;;;;;;2.48;100.00;99553.28;7398239;19;20078;-64
2021/12/29 04:51:14;;;;;;;46.10;21.23;;;;;;;2.50;100.00;99553.28;7399045;19;20019;-64
2021/12/29 04:53:42;;;;;;;43.58;20.42;;;;;;;2.51;100.00;99561.03;7399960;19;20370;-64
2021/12/29 04:56:14;;;;;;;41.95;20.23;;;;;;;2.51;100.00;99567.94;7396731;19;20039;-64
2021/12/29 04:58:44;;;;;;;40.30;20.02;;;;;;;2.52;100.00;99564.47;7397848;19;20018;-64
2021/12/29 05:01:12;;;;;;;38.80;19.92;;;;;;;2.53;100.00;99571.38;7398155;19;20034;-64
2021/12/29 05:03:43;;;;;;;39.63;19.90;;;;;;;2.52;100.00;99574.84;7397976;19;20040;-64
2021/12/29 05:08:52;;;;;;;39.75;18.55;;;;;;;2.54;100.00;99573.09;7398120;19;20015;-64
2021/12/29 05:11:23;;;;;;;37.88;19.17;;;;;;;2.55;100.00;99579.97;7397288;19;20503;-63
2021/12/29 05:13:51;;;;;;;38.88;20.08;;;;;;;2.57;100.00;99591.19;7398077;19;20014;-63
2021/12/29 05:16:19;;;;;;;41.25;19.13;;;;;;;2.55;100.00;99585.16;7395972;19;20022;-64
2021/12/29 05:18:48;;;;;;;37.03;19.95;;;;;;;2.55;100.00;99590.34;7396158;19;20551;-64
2021/12/29 05:21:16;;;;;;;39.45;19.58;;;;;;;2.57;100.00;99599.81;7395933;19;20084;-64
2021/12/29 05:23:44;;;;;;;55.38;25.65;;;;;;;2.59;100.00;99592.91;7397425;19;20022;-64
2021/12/29 05:26:13;;;;;;;46.67;20.23;;;;;;;2.62;100.00;99607.56;7395802;19;20022;-64
2021/12/29 05:28:44;;;;;;;43.88;20.10;;;;;;;2.67;100.00;99608.38;7397269;19;20015;-64
2021/12/29 05:31:12;;;;;;;44.55;18.55;;;;;;;2.73;100.00;99613.53;7396628;19;20036;-64
2021/12/29 05:33:41;;;;;;;48.03;18.70;;;;;;;2.79;100.00;99614.34;7396749;19;20040;-67
2021/12/29 05:36:09;;;;;;;46.03;18.80;;;;;;;2.86;100.00;99618.59;7395394;19;20044;-64
2021/12/29 05:38:37;;;;;;;49.22;19.42;;;;;;;2.93;100.00;99621.13;7394327;19;20018;-64
2021/12/29 05:41:05;;;;;;;44.00;17.70;;;;;;;2.99;100.00;99620.19;7396809;19;20014;-64
2021/12/29 05:43:34;;;;;;;36.03;16.98;;;;;;;3.05;100.00;99627.94;7396348;19;20018;-64
2021/12/29 05:46:05;;;;;;;40.83;17.05;;;;;;;3.10;100.00;99625.31;7395223;19;20031;-64
2021/12/29 05:48:33;;;;;;;45.95;16.65;;;;;;;3.17;100.00;99626.97;7396970;19;20377;-64
2021/12/29 05:51:02;;;;;;;35.30;16.23;;;;;;;3.19;100.00;99629.53;7396366;19;20018;-63
2021/12/29 05:53:30;;;;;;;37.42;15.68;;;;;;;3.23;100.00;99634.66;7396292;19;20015;-64
2021/12/29 05:55:58;;;;;;;35.63;14.98;;;;;;;3.27;100.00;99638.09;7394846;19;20015;-65
2021/12/29 05:58:26;;;;;;;36.63;15.05;;;;;;;3.31;100.00;99638.94;7395555;19;20014;-63
2021/12/29 06:00:55;;;;;;;31.35;14.40;;;;;;;3.33;100.00;99632.84;7395911;19;20022;-64
2021/12/29 06:03:26;;;;;;;29.95;14.20;;;;;;;3.36;100.00;99643.22;7395675;19;20526;-63
2021/12/29 06:05:54;;;;;;;29.35;13.98;;;;;;;3.37;100.00;99639.72;7394875;19;20031;-64
2021/12/29 06:08:22;;;;;;;33.83;14.57;;;;;;;3.39;100.00;99640.56;7395523;19;20040;-64
2021/12/29 06:10:51;;;;;;;38.85;16.90;;;;;;;3.40;100.00;99649.22;7395744;19;20018;-64
2021/12/29 06:13:27;;;;;;;38.30;19.08;;;;;;;3.43;100.00;99651.78;7395546;19;20374;-64
2021/12/29 06:15:55;;;;;;;30.52;16.73;;;;;;;3.43;100.00;99654.38;7394688;19;20014;-64
2021/12/29 06:18:26;;;;;;;28.35;14.65;;;;;;;3.45;100.00;99657.81;7395492;19;20026;-64
2021/12/29 06:21:00;;;;;;;28.65;14.02;;;;;;;3.46;100.00;99663.84;7394627;19;20006;-64
2021/12/29 06:23:29;;;;;;;29.58;13.25;;;;;;;3.47;100.00;99666.41;7395891;19;20036;-64
2021/12/29 06:25:57;;;;;;;27.80;13.05;;;;;;;3.47;100.00;99661.22;7394120;19;20045;-64
2021/12/29 06:28:26;;;;;;;29.58;13.73;;;;;;;3.46;100.00;99658.66;7395850;19;20038;-64
2021/12/29 06:30:54;;;;;;;25.42;13.25;;;;;;;3.49;100.00;99664.69;7395279;19;20010;-64
2021/12/29 06:33:22;;;;;;;28.08;12.52;;;;;;;3.50;100.00;99676.78;7395925;19;20029;-64
2021/12/29 06:35:53;;;;;;;30.35;14.23;;;;;;;3.51;100.00;99675.03;7393861;19;20018;-64
2021/12/29 06:38:21;;;;;;;26.80;13.77;;;;;;;3.52;100.00;99676.75;7395273;19;20011;-63
2021/12/29 06:40:49;;;;;;;30.92;13.57;;;;;;;3.53;100.00;99681.06;7394696;19;20014;-64
2021/12/29 06:43:17;;;;;;;24.75;12.38;;;;;;;3.51;100.00;99672.44;7394580;19;20018;-63
2021/12/29 06:45:46;;;;;;;26.40;12.20;;;;;;;3.54;100.00;99680.19;7393715;19;20019;-64
2021/12/29 06:48:14;;;;;;;25.70;12.82;;;;;;;3.54;100.00;99686.25;7394947;19;20040;-64
2021/12/29 06:50:42;;;;;;;31.33;12.85;;;;;;;3.55;100.00;99689.69;7401207;19;20037;-64
2021/12/29 06:53:13;;;;;;;27.45;12.07;;;;;;;3.56;100.00;99694.00;7402070;19;20018;-64
2021/12/29 06:55:43;;;;;;;34.90;14.75;;;;;;;3.57;100.00;99700.91;7400758;19;20036;-63
2021/12/29 06:58:11;;;;;;;42.47;17.50;;;;;;;3.59;100.00;99713.00;7402284;19;20022;-64
2021/12/29 07:00:40;;;;;;;34.55;15.90;;;;;;;3.60;100.00;99719.03;7399302;19;20040;-64
2021/12/29 07:03:08;;;;;;;34.40;15.30;;;;;;;3.59;100.00;99722.50;7401898;19;20011;-63
2021/12/29 07:05:36;;;;;;;30.15;16.98;;;;;;;3.60;100.00;99719.03;7399955;19;20023;-64
2021/12/29 07:08:05;;;;;;;29.25;14.10;;;;;;;3.62;100.00;99727.66;7401890;19;20014;-64
2021/12/29 07:10:36;;;;;;;45.75;25.80;;;;;;;3.63;100.00;99731.09;7401653;19;20044;-64
2021/12/29 07:13:04;;;;;;;56.25;34.00;;;;;;;3.62;100.00;99727.66;7401567;19;20027;-64
2021/12/29 07:15:32;;;;;;;56.00;34.65;;;;;;;3.63;100.00;99744.94;7399433;19;20026;-64
2021/12/29 07:18:00;;;;;;;39.85;22.45;;;;;;;3.63;100.00;99750.13;7401219;19;20014;-65
2021/12/29 07:20:29;;;;;;;27.17;15.98;;;;;;;3.63;100.00;99747.53;7398527;19;20047;-65
2021/12/29 07:22:57;;;;;;;26.88;14.50;;;;;;;3.62;100.00;99753.59;7401711;19;20032;-62
2021/12/29 07:25:29;;;;;;;31.58;14.50;;;;;;;3.59;100.00;99751.91;7399773;19;20018;-65
2021/12/29 07:27:59;;;;;;;28.15;14.80;;;;;;;3.57;100.00;99755.38;7401360;19;20026;-64
2021/12/29 07:30:28;;;;;;;31.30;13.35;;;;;;;3.55;100.00;99752.81;7400580;19;20026;-64
2021/12/29 07:32:56;;;;;;;32.00;14.15;;;;;;;3.51;100.00;99747.66;7400806;19;20011;-65
2021/12/29 07:35:24;;;;;;;30.98;14.38;;;;;;;3.54;100.00;99761.44;7399637;19;20018;-66
2021/12/29 07:37:53;;;;;;;31.90;16.52;;;;;;;3.53;100.00;99764.06;7400884;19;20011;-66
2021/12/29 07:40:21;;;;;;;28.27;15.10;;;;;;;3.52;100.00;99762.34;7399219;19;20011;-65
2021/12/29 07:42:49;;;;;;;27.63;16.27;;;;;;;3.51;100.00;99765.81;7400958;19;20033;-65
2021/12/29 07:45:20;;;;;;;23.08;14.00;;;;;;;3.50;100.00;99772.72;7399135;19;20023;-65
2021/12/29 07:47:49;;;;;;;36.53;14.65;;;;;;;3.50;100.00;99775.31;7400902;19;20089;-65
2021/12/29 07:50:20;;;;;;;27.60;14.60;;;;;;;3.51;100.00;99771.00;7400406;19;20014;-65
2021/12/29 07:52:48;;;;;;;34.55;18.67;;;;;;;3.52;100.00;99778.75;7400508;19;20015;-65
2021/12/29 07:55:17;;;;;;;32.65;15.20;;;;;;;3.54;100.00;99781.34;7399053;19;20387;-65
2021/12/29 07:57:45;;;;;;;30.17;16.60;;;;;;;3.54;100.00;99795.16;7400256;19;20015;-65
2021/12/29 08:00:16;;;;;;;35.42;16.05;;;;;;;3.54;100.00;99792.56;7398059;19;20024;-65
2021/12/29 08:02:47;;;;;;;31.88;15.88;;;;;;;3.55;100.00;99796.00;7398206;19;20066;-65
2021/12/29 08:05:16;;;;;;;31.92;14.70;;;;;;;3.57;100.00;99807.25;7398721;19;20083;-66
2021/12/29 08:07:44;;;;;;;33.58;14.93;;;;;;;3.59;100.00;99810.72;7399529;19;20479;-66
2021/12/29 08:10:13;;;;;;;28.77;14.77;;;;;;;3.61;100.00;99816.72;7400572;19;20010;-65
2021/12/29 08:12:41;;;;;;;30.35;14.93;;;;;;;3.55;100.00;99804.69;7399451;19;20032;-65
2021/12/29 08:15:11;;;;;;;37.00;16.25;;;;;;;3.64;100.00;99819.31;7398054;19;20018;-68
2021/12/29 08:17:40;;;;;;;36.10;19.33;;;;;;;3.65;100.00;99834.00;7399691;19;20022;-66
2021/12/29 08:20:12;;;;;;;32.42;17.63;;;;;;;3.68;100.00;99840.91;7398054;19;20030;-64
2021/12/29 08:22:47;;;;;;;34.53;15.15;;;;;;;3.69;100.00;99845.19;7395913;19;20011;-65
2021/12/29 08:25:15;;;;;;;28.98;13.95;;;;;;;3.70;100.00;99847.78;7398373;19;20040;-66
2021/12/29 08:27:43;;;;;;;24.02;12.98;;;;;;;3.70;100.00;99845.19;7399213;19;20036;-66
2021/12/29 08:30:13;;;;;;;33.20;14.77;;;;;;;3.70;100.00;99854.69;7398921;19;20014;-65
2021/12/29 08:32:41;;;;;;;29.95;13.85;;;;;;;3.68;100.00;99846.94;7398797;19;20011;-66
2021/12/29 08:35:13;;;;;;;27.70;14.68;;;;;;;3.66;100.00;99851.25;7398004;19;20026;-66
2021/12/29 08:37:41;;;;;;;29.40;14.45;;;;;;;3.67;100.00;99854.75;7398776;19;20015;-65
2021/12/29 08:40:12;;;;;;;34.22;16.13;;;;;;;3.66;100.00;99859.03;7397098;19;20018;-64
2021/12/29 08:42:41;;;;;;;28.33;14.30;;;;;;;3.65;100.00;99862.53;7398864;19;20015;-65
2021/12/29 08:45:13;;;;;;;30.75;14.13;;;;;;;3.65;100.00;99875.50;7397633;19;20018;-65
2021/12/29 08:47:42;;;;;;;30.85;15.00;;;;;;;3.63;100.00;99878.97;7398977;19;20022;-65
2021/12/29 08:50:16;;;;;;;28.65;14.82;;;;;;;3.62;100.00;99882.44;7398001;19;20015;-65
2021/12/29 08:52:44;;;;;;;33.45;15.98;;;;;;;3.61;100.00;99886.75;7398901;19;20011;-66
2021/12/29 08:55:14;;;;;;;51.70;23.38;;;;;;;3.60;100.00;99882.44;7397736;19;20378;-65
2021/12/29 08:57:43;;;;;;;33.53;17.33;;;;;;;3.60;100.00;99887.63;7398066;19;20023;-65
2021/12/29 09:00:14;;;;;;;34.05;17.58;;;;;;;3.60;100.00;99892.81;7397077;19;20053;-65
2021/12/29 09:02:43;;;;;;;35.22;17.65;;;;;;;3.59;100.00;99899.75;7398254;19;20018;-65
2021/12/29 09:05:16;;;;;;;29.30;17.67;;;;;;;3.59;100.00;99907.53;7396884;19;20022;-65
2021/12/29 09:07:44;;;;;;;38.08;18.35;;;;;;;3.61;100.00;99906.66;7398150;19;20411;-65
2021/12/29 09:10:14;;;;;;;33.70;18.77;;;;;;;3.61;100.00;99915.28;7397243;19;20479;-65
2021/12/29 09:12:43;;;;;;;36.42;17.15;;;;;;;3.59;100.00;99914.47;7397431;19;20508;-65
2021/12/29 09:15:13;;;;;;;35.83;17.48;;;;;;;3.63;100.00;99921.34;7396615;19;20031;-65
2021/12/29 09:17:41;;;;;;;31.15;17.42;;;;;;;3.63;100.00;99915.28;7397891;19;20014;-65
2021/12/29 09:20:16;;;;;;;38.90;18.10;;;;;;;3.65;100.00;99918.72;7397335;19;20018;-65
2021/12/29 09:22:46;;;;;;;35.08;18.63;;;;;;;3.67;100.00;99919.59;7395071;19;20010;-65
2021/12/29 09:25:15;;;;;;;37.47;19.63;;;;;;;3.68;100.00;99914.38;7396249;19;20018;-65
2021/12/29 09:27:47;;;;;;;41.08;18.13;;;;;;;3.72;100.00;99916.06;7397659;19;20006;-66
2021/12/29 09:30:15;;;;;;;37.63;19.45;;;;;;;3.75;100.00;99920.38;7398849;19;20010;-66
2021/12/29 09:32:43;;;;;;;37.80;18.75;;;;;;;3.80;100.00;99928.16;7396171;19;20486;-65
2021/12/29 09:35:12;;;;;;;33.72;17.63;;;;;;;3.83;100.00;99928.13;7396380;19;20063;-65
2021/12/29 09:37:40;;;;;;;36.65;18.38;;;;;;;3.86;100.00;99928.09;7396682;19;20027;-65
2021/12/29 09:40:13;;;;;;;38.58;20.13;;;;;;;3.89;100.00;99928.94;7395839;19;20036;-66
2021/12/29 09:42:42;;;;;;;36.83;18.67;;;;;;;3.93;100.00;99922.00;7397277;19;20040;-65
2021/12/29 09:45:12;;;;;;;51.25;25.95;;;;;;;3.96;100.00;99919.38;7396493;19;20361;-66
2021/12/29 09:47:41;;;;;;;37.28;19.10;;;;;;;4.03;100.00;99936.63;7396910;19;20498;-66
2021/12/29 09:50:12;;;;;;;39.33;20.02;;;;;;;4.06;100.00;99936.59;7396561;19;20037;-66
2021/12/29 09:52:41;;;;;;;38.53;19.98;;;;;;;4.08;100.00;99928.78;7396284;19;20509;-65
2021/12/29 09:55:15;;;;;;;41.38;20.00;;;;;;;4.14;100.00;99938.28;7395562;19;20095;-66
2021/12/29 09:57:47;;;;;;;36.55;18.27;;;;;;;4.16;100.00;99926.16;7396517;19;20361;-66
2021/12/29 10:00:24;;;;;;;39.22;19.23;;;;;;;4.19;100.00;99920.91;7396356;19;20501;-65
2021/12/29 10:02:52;;;;;;;37.08;18.95;;;;;;;4.23;100.00;99920.00;7396568;19;20019;-64
2021/12/29 10:05:20;;;;;;;36.60;18.52;;;;;;;4.28;100.00;99922.56;7396764;19;20040;-64
2021/12/29 10:07:59;;;;;;;34.78;18.00;;;;;;;4.27;100.00;99915.66;7397749;19;20037;-65
2021/12/29 10:10:30;;;;;;;31.77;17.02;;;;;;;4.33;100.00;99923.38;7397524;19;20014;-66
2021/12/29 10:12:59;;;;;;;28.08;16.65;;;;;;;4.37;100.00;99919.88;7396522;19;20015;-64
2021/12/29 10:15:33;;;;;;;33.63;17.08;;;;;;;4.40;100.00;99915.53;7394916;19;20025;-65
2021/12/29 10:18:07;;;;;;;31.48;17.92;;;;;;;4.44;100.00;99905.97;7396853;19;20014;-68
2021/12/29 10:20:45;;;;;;;34.33;19.02;;;;;;;4.47;100.00;99913.72;7396043;19;20015;-65
2021/12/29 10:23:19;;;;;;;32.40;17.17;;;;;;;4.50;100.00;99918.03;7393920;19;20018;-64
2021/12/29 10:25:50;;;;;;;39.47;22.17;;;;;;;4.52;100.00;99922.31;7394043;19;20014;-65
2021/12/29 10:28:26;;;;;;;31.60;18.23;;;;;;;4.55;100.00;99929.25;7395506;19;20461;-64
2021/12/29 10:31:04;;;;;;;30.05;16.77;;;;;;;4.56;100.00;99926.63;7395244;19;20023;-66
2021/12/29 10:33:40;;;;;;;32.25;16.27;;;;;;;4.58;100.00;99931.81;7395397;19;20022;-65
2021/12/29 10:36:21;;;;;;;28.45;18.35;;;;;;;4.58;100.00;99929.22;7393575;19;20372;-66
2021/12/29 10:38:58;;;;;;;29.65;19.02;;;;;;;4.59;100.00;99930.94;7394960;19;20486;-66
2021/12/29 10:41:29;;;;;;;29.30;19.08;;;;;;;4.62;100.00;99928.28;7394252;19;20010;-65
2021/12/29 10:44:01;;;;;;;27.63;17.08;;;;;;;4.62;100.00;99928.28;7395606;19;20015;-66
2021/12/29 10:46:33;;;;;;;26.73;16.55;;;;;;;4.64;100.00;99933.47;7394279;19;20030;-65
2021/12/29 10:49:03;;;;;;;30.90;16.35;;;;;;;4.63;100.00;99932.63;7395249;19;20011;-65
2021/12/29 10:51:34;;;;;;;25.20;15.15;;;;;;;4.63;100.00;99943.00;7394602;19;20011;-65
2021/12/29 10:54:11;;;;;;;28.20;14.65;;;;;;;4.64;100.00;99938.66;7395814;19;20018;-64
2021/12/29 10:56:44;;;;;;;29.23;18.08;;;;;;;4.64;100.00;99942.13;7393068;19;20048;-65
2021/12/29 10:59:23;;;;;;;29.90;16.70;;;;;;;4.66;100.00;99943.00;7394369;19;20373;-64
2021/12/29 11:01:53;;;;;;;29.95;17.17;;;;;;;4.68;100.00;99941.22;7393136;19;20022;-65
2021/12/29 11:04:22;;;;;;;30.83;16.98;;;;;;;4.71;100.00;99949.00;7394450;19;20011;-65
2021/12/29 11:06:51;;;;;;;27.55;15.18;;;;;;;4.74;100.00;99953.31;7393949;19;20010;-66
2021/12/29 11:09:27;;;;;;;29.38;16.80;;;;;;;4.75;100.00;99952.41;7394030;19;20027;-67
2021/12/29 11:11:58;;;;;;;31.95;16.58;;;;;;;4.78;100.00;99956.69;7393960;19;20390;-66
2021/12/29 11:14:29;;;;;;;28.33;16.55;;;;;;;4.79;100.00;99950.63;7394779;19;20018;-67
2021/12/29 11:17:07;;;;;;;29.40;16.73;;;;;;;4.81;100.00;99952.34;7394450;19;20042;-64
2021/12/29 11:19:36;;;;;;;25.65;16.45;;;;;;;4.83;100.00;99958.41;7393972;19;20036;-65
2021/12/29 11:22:14;;;;;;;29.80;17.25;;;;;;;4.85;100.00;99958.38;7391273;19;20042;-65
2021/12/29 11:24:44;;;;;;;27.88;15.43;;;;;;;4.86;100.00;99962.69;7393175;19;20018;-65
2021/12/29 11:27:20;;;;;;;26.35;14.20;;;;;;;4.86;100.00;99965.28;7395005;19;20018;-65
2021/12/29 11:29:54;;;;;;;25.23;16.23;;;;;;;4.85;100.00;99973.97;7392275;19;20023;-66
2021/12/29 11:32:27;;;;;;;31.35;16.00;;;;;;;4.85;100.00;99973.97;7394273;19;20038;-69